sensor_id;sensor_type;location;lat;lon;timestamp;P1;durP1;ratioP1;P2;durP2;ratioP2
71104;SDS011;58760;48.716;8.962;2022-12-08T00:02:13;13.45;;;6.20;;
71104;SDS011;58760;48.716;8.962;2022-12-08T00:04:38;13.35;;;6.45;;
71104;SDS011;58760;48.716;8.962;2022-12-08T00:07:22;12.32;;;6.65;;
71104;SDS011;58760;48.716;8.962;2022-12-08T00:10:06;11.75;;;5.95;;
71104;SDS011;58760;48.716;8.962;2022-12-08T00:12:32;13.98;;;6.47;;
71104;SDS011;58760;48.716;8.962;2022-12-08T00:14:58;13.07;;;6.05;;
71104;SDS011;58760;48.716;8.962;2022-12-08T00:17:23;14.60;;;5.95;;
71104;SDS011;58760;48.716;8.962;2022-12-08T00:19:48;10.25;;;5.53;;
71104;SDS011;58760;48.716;8.962;2022-12-08T00:22:14;11.45;;;6.20;;
71104;SDS011;58760;48.716;8.962;2022-12-08T00:24:40;13.40;;;6.85;;
71104;SDS011;58760;48.716;8.962;2022-12-08T00:27:09;14.13;;;7.65;;
71104;SDS011;58760;48.716;8.962;2022-12-08T00:29:36;10.85;;;6.38;;
71104;SDS011;58760;48.716;8.962;2022-12-08T00:32:02;12.98;;;6.13;;
71104;SDS011;58760;48.716;8.962;2022-12-08T00:34:29;14.48;;;6.53;;
71104;SDS011;58760;48.716;8.962;2022-12-08T00:36:55;12.68;;;6.45;;
71104;SDS011;58760;48.716;8.962;2022-12-08T00:39:20;14.10;;;6.25;;
71104;SDS011;58760;48.716;8.962;2022-12-08T00:41:46;13.23;;;5.90;;
71104;SDS011;58760;48.716;8.962;2022-12-08T00:44:30;10.57;;;6.07;;
71104;SDS011;58760;48.716;8.962;2022-12-08T00:46:55;10.90;;;5.65;;
71104;SDS011;58760;48.716;8.962;2022-12-08T00:49:20;12.55;;;5.88;;
71104;SDS011;58760;48.716;8.962;2022-12-08T00:51:46;12.43;;;6.30;;
71104;SDS011;58760;48.716;8.962;2022-12-08T00:54:11;13.80;;;6.88;;
71104;SDS011;58760;48.716;8.962;2022-12-08T00:56:37;14.25;;;6.57;;
71104;SDS011;58760;48.716;8.962;2022-12-08T00:59:03;12.63;;;6.50;;
71104;SDS011;58760;48.716;8.962;2022-12-08T01:03:55;10.93;;;5.13;;
71104;SDS011;58760;48.716;8.962;2022-12-08T01:06:20;11.55;;;5.93;;
71104;SDS011;58760;48.716;8.962;2022-12-08T01:08:46;11.85;;;6.15;;
71104;SDS011;58760;48.716;8.962;2022-12-08T01:11:13;13.05;;;6.15;;
71104;SDS011;58760;48.716;8.962;2022-12-08T01:13:41;12.23;;;6.18;;
71104;SDS011;58760;48.716;8.962;2022-12-08T01:16:07;11.27;;;5.90;;
71104;SDS011;58760;48.716;8.962;2022-12-08T01:18:33;12.30;;;5.82;;
71104;SDS011;58760;48.716;8.962;2022-12-08T01:21:03;12.02;;;5.95;;
71104;SDS011;58760;48.716;8.962;2022-12-08T01:23:30;12.27;;;6.15;;
71104;SDS011;58760;48.716;8.962;2022-12-08T01:25:59;11.45;;;6.32;;
71104;SDS011;58760;48.716;8.962;2022-12-08T01:28:26;12.20;;;6.18;;
71104;SDS011;58760;48.716;8.962;2022-12-08T01:30:51;11.57;;;5.80;;
71104;SDS011;58760;48.716;8.962;2022-12-08T01:33:17;15.50;;;5.95;;
71104;SDS011;58760;48.716;8.962;2022-12-08T01:35:42;10.63;;;5.68;;
71104;SDS011;58760;48.716;8.962;2022-12-08T01:38:07;12.40;;;6.20;;
71104;SDS011;58760;48.716;8.962;2022-12-08T01:40:33;12.30;;;5.75;;
71104;SDS011;58760;48.716;8.962;2022-12-08T01:42:58;12.95;;;6.10;;
71104;SDS011;58760;48.716;8.962;2022-12-08T01:45:25;11.95;;;5.90;;
71104;SDS011;58760;48.716;8.962;2022-12-08T01:47:53;11.32;;;6.05;;
71104;SDS011;58760;48.716;8.962;2022-12-08T01:50:24;10.02;;;5.18;;
71104;SDS011;58760;48.716;8.962;2022-12-08T01:52:52;12.15;;;5.88;;
71104;SDS011;58760;48.716;8.962;2022-12-08T01:55:43;12.13;;;6.38;;
71104;SDS011;58760;48.716;8.962;2022-12-08T01:58:20;12.95;;;6.10;;
71104;SDS011;58760;48.716;8.962;2022-12-08T02:00:51;11.85;;;6.25;;
71104;SDS011;58760;48.716;8.962;2022-12-08T02:03:19;13.05;;;6.25;;
71104;SDS011;58760;48.716;8.962;2022-12-08T02:05:49;11.68;;;6.15;;
71104;SDS011;58760;48.716;8.962;2022-12-08T02:08:16;13.95;;;5.93;;
71104;SDS011;58760;48.716;8.962;2022-12-08T02:10:42;14.30;;;6.95;;
71104;SDS011;58760;48.716;8.962;2022-12-08T02:13:08;11.68;;;6.50;;
71104;SDS011;58760;48.716;8.962;2022-12-08T02:20:57;13.15;;;6.70;;
71104;SDS011;58760;48.716;8.962;2022-12-08T02:23:33;12.60;;;6.05;;
71104;SDS011;58760;48.716;8.962;2022-12-08T02:34:25;14.60;;;6.47;;
71104;SDS011;58760;48.716;8.962;2022-12-08T02:39:40;12.30;;;6.05;;
71104;SDS011;58760;48.716;8.962;2022-12-08T02:42:34;11.18;;;5.88;;
71104;SDS011;58760;48.716;8.962;2022-12-08T02:45:14;11.60;;;5.57;;
71104;SDS011;58760;48.716;8.962;2022-12-08T02:47:46;13.15;;;5.28;;
71104;SDS011;58760;48.716;8.962;2022-12-08T02:50:12;14.10;;;6.07;;
71104;SDS011;58760;48.716;8.962;2022-12-08T02:52:39;10.93;;;5.72;;
71104;SDS011;58760;48.716;8.962;2022-12-08T02:55:08;12.32;;;5.80;;
71104;SDS011;58760;48.716;8.962;2022-12-08T03:00:38;12.25;;;5.82;;
71104;SDS011;58760;48.716;8.962;2022-12-08T03:05:52;13.88;;;6.20;;
71104;SDS011;58760;48.716;8.962;2022-12-08T03:08:35;15.95;;;6.22;;
71104;SDS011;58760;48.716;8.962;2022-12-08T03:14:23;13.48;;;6.50;;
71104;SDS011;58760;48.716;8.962;2022-12-08T03:16:50;14.00;;;6.28;;
71104;SDS011;58760;48.716;8.962;2022-12-08T03:19:26;12.25;;;6.60;;
71104;SDS011;58760;48.716;8.962;2022-12-08T03:21:56;14.75;;;6.22;;
71104;SDS011;58760;48.716;8.962;2022-12-08T03:24:28;15.27;;;6.90;;
71104;SDS011;58760;48.716;8.962;2022-12-08T03:27:01;15.70;;;6.65;;
71104;SDS011;58760;48.716;8.962;2022-12-08T03:29:27;12.70;;;6.32;;
71104;SDS011;58760;48.716;8.962;2022-12-08T03:31:55;15.65;;;7.35;;
71104;SDS011;58760;48.716;8.962;2022-12-08T03:34:24;15.43;;;6.97;;
71104;SDS011;58760;48.716;8.962;2022-12-08T03:36:52;12.82;;;6.45;;
71104;SDS011;58760;48.716;8.962;2022-12-08T03:39:18;11.55;;;5.80;;
71104;SDS011;58760;48.716;8.962;2022-12-08T03:41:43;10.82;;;5.68;;
71104;SDS011;58760;48.716;8.962;2022-12-08T03:44:10;12.23;;;5.88;;
71104;SDS011;58760;48.716;8.962;2022-12-08T03:46:35;10.90;;;5.32;;
71104;SDS011;58760;48.716;8.962;2022-12-08T03:49:01;14.52;;;5.82;;
71104;SDS011;58760;48.716;8.962;2022-12-08T03:51:26;11.02;;;5.32;;
71104;SDS011;58760;48.716;8.962;2022-12-08T03:53:51;12.57;;;5.90;;
71104;SDS011;58760;48.716;8.962;2022-12-08T03:56:24;12.15;;;5.85;;
71104;SDS011;58760;48.716;8.962;2022-12-08T03:58:51;11.82;;;5.63;;
71104;SDS011;58760;48.716;8.962;2022-12-08T04:01:18;10.98;;;5.22;;
71104;SDS011;58760;48.716;8.962;2022-12-08T04:03:43;11.65;;;5.72;;
71104;SDS011;58760;48.716;8.962;2022-12-08T04:06:09;12.68;;;5.72;;
71104;SDS011;58760;48.716;8.962;2022-12-08T04:08:34;13.50;;;6.22;;
71104;SDS011;58760;48.716;8.962;2022-12-08T04:11:00;14.38;;;6.03;;
71104;SDS011;58760;48.716;8.962;2022-12-08T04:13:25;13.38;;;6.07;;
71104;SDS011;58760;48.716;8.962;2022-12-08T04:15:50;11.35;;;5.57;;
71104;SDS011;58760;48.716;8.962;2022-12-08T04:18:16;10.88;;;5.45;;
71104;SDS011;58760;48.716;8.962;2022-12-08T04:20:42;12.63;;;5.88;;
71104;SDS011;58760;48.716;8.962;2022-12-08T04:23:09;12.48;;;6.00;;
71104;SDS011;58760;48.716;8.962;2022-12-08T04:25:35;14.00;;;6.07;;
71104;SDS011;58760;48.716;8.962;2022-12-08T04:28:01;11.38;;;5.68;;
71104;SDS011;58760;48.716;8.962;2022-12-08T04:30:27;14.02;;;5.80;;
71104;SDS011;58760;48.716;8.962;2022-12-08T04:32:52;13.07;;;5.78;;
71104;SDS011;58760;48.716;8.962;2022-12-08T04:35:17;12.07;;;6.03;;
71104;SDS011;58760;48.716;8.962;2022-12-08T04:37:43;10.88;;;5.43;;
71104;SDS011;58760;48.716;8.962;2022-12-08T04:40:09;10.65;;;5.15;;
71104;SDS011;58760;48.716;8.962;2022-12-08T04:42:35;11.43;;;5.82;;
71104;SDS011;58760;48.716;8.962;2022-12-08T04:45:00;12.20;;;6.05;;
71104;SDS011;58760;48.716;8.962;2022-12-08T04:47:26;13.82;;;6.18;;
71104;SDS011;58760;48.716;8.962;2022-12-08T04:49:52;11.02;;;5.90;;
71104;SDS011;58760;48.716;8.962;2022-12-08T04:52:17;12.25;;;5.93;;
71104;SDS011;58760;48.716;8.962;2022-12-08T04:54:42;12.20;;;6.57;;
71104;SDS011;58760;48.716;8.962;2022-12-08T04:57:08;13.85;;;5.95;;
71104;SDS011;58760;48.716;8.962;2022-12-08T04:59:33;12.50;;;6.32;;
71104;SDS011;58760;48.716;8.962;2022-12-08T05:01:59;13.57;;;6.13;;
71104;SDS011;58760;48.716;8.962;2022-12-08T05:04:24;13.18;;;6.57;;
71104;SDS011;58760;48.716;8.962;2022-12-08T05:06:50;13.35;;;6.70;;
71104;SDS011;58760;48.716;8.962;2022-12-08T05:09:15;10.93;;;5.72;;
71104;SDS011;58760;48.716;8.962;2022-12-08T05:11:40;11.05;;;5.50;;
71104;SDS011;58760;48.716;8.962;2022-12-08T05:14:09;11.65;;;5.38;;
71104;SDS011;58760;48.716;8.962;2022-12-08T05:16:37;14.32;;;5.55;;
71104;SDS011;58760;48.716;8.962;2022-12-08T05:19:03;9.98;;;5.22;;
71104;SDS011;58760;48.716;8.962;2022-12-08T05:21:29;12.55;;;5.47;;
71104;SDS011;58760;48.716;8.962;2022-12-08T05:23:54;11.98;;;6.00;;
71104;SDS011;58760;48.716;8.962;2022-12-08T05:26:20;13.40;;;5.97;;
71104;SDS011;58760;48.716;8.962;2022-12-08T05:28:45;12.80;;;6.03;;
71104;SDS011;58760;48.716;8.962;2022-12-08T05:31:11;10.68;;;5.65;;
71104;SDS011;58760;48.716;8.962;2022-12-08T05:36:03;11.55;;;5.55;;
71104;SDS011;58760;48.716;8.962;2022-12-08T05:38:29;11.38;;;5.90;;
71104;SDS011;58760;48.716;8.962;2022-12-08T05:40:54;12.80;;;6.15;;
71104;SDS011;58760;48.716;8.962;2022-12-08T05:43:20;13.23;;;5.93;;
71104;SDS011;58760;48.716;8.962;2022-12-08T05:45:45;11.25;;;5.28;;
71104;SDS011;58760;48.716;8.962;2022-12-08T05:48:10;14.43;;;6.03;;
71104;SDS011;58760;48.716;8.962;2022-12-08T05:50:36;12.55;;;5.55;;
71104;SDS011;58760;48.716;8.962;2022-12-08T05:53:01;12.48;;;5.25;;
71104;SDS011;58760;48.716;8.962;2022-12-08T05:55:27;12.75;;;5.82;;
71104;SDS011;58760;48.716;8.962;2022-12-08T05:57:52;11.32;;;5.75;;
71104;SDS011;58760;48.716;8.962;2022-12-08T06:00:18;11.27;;;5.57;;
71104;SDS011;58760;48.716;8.962;2022-12-08T06:02:44;11.80;;;5.60;;
71104;SDS011;58760;48.716;8.962;2022-12-08T06:05:09;9.30;;;4.75;;
71104;SDS011;58760;48.716;8.962;2022-12-08T06:07:35;11.52;;;5.15;;
71104;SDS011;58760;48.716;8.962;2022-12-08T06:10:00;9.80;;;4.95;;
71104;SDS011;58760;48.716;8.962;2022-12-08T06:12:25;11.95;;;5.35;;
71104;SDS011;58760;48.716;8.962;2022-12-08T06:14:51;10.85;;;5.35;;
71104;SDS011;58760;48.716;8.962;2022-12-08T06:17:16;13.05;;;5.32;;
71104;SDS011;58760;48.716;8.962;2022-12-08T06:19:41;10.23;;;5.22;;
71104;SDS011;58760;48.716;8.962;2022-12-08T06:22:07;13.80;;;5.55;;
71104;SDS011;58760;48.716;8.962;2022-12-08T06:24:32;9.77;;;5.00;;
71104;SDS011;58760;48.716;8.962;2022-12-08T06:26:57;10.75;;;4.88;;
71104;SDS011;58760;48.716;8.962;2022-12-08T06:29:23;10.88;;;4.55;;
71104;SDS011;58760;48.716;8.962;2022-12-08T06:31:48;9.55;;;4.40;;
71104;SDS011;58760;48.716;8.962;2022-12-08T06:34:14;9.02;;;4.43;;
71104;SDS011;58760;48.716;8.962;2022-12-08T06:36:39;8.88;;;4.55;;
71104;SDS011;58760;48.716;8.962;2022-12-08T06:39:05;11.38;;;5.32;;
71104;SDS011;58760;48.716;8.962;2022-12-08T06:41:30;12.07;;;5.28;;
71104;SDS011;58760;48.716;8.962;2022-12-08T06:43:56;17.63;;;7.25;;
71104;SDS011;58760;48.716;8.962;2022-12-08T06:46:22;13.88;;;6.28;;
71104;SDS011;58760;48.716;8.962;2022-12-08T06:48:47;14.55;;;6.82;;
71104;SDS011;58760;48.716;8.962;2022-12-08T06:51:15;11.93;;;5.47;;
71104;SDS011;58760;48.716;8.962;2022-12-08T06:53:43;11.50;;;5.90;;
71104;SDS011;58760;48.716;8.962;2022-12-08T06:56:11;11.02;;;5.68;;
71104;SDS011;58760;48.716;8.962;2022-12-08T06:58:37;12.07;;;6.15;;
71104;SDS011;58760;48.716;8.962;2022-12-08T07:01:03;14.10;;;6.25;;
71104;SDS011;58760;48.716;8.962;2022-12-08T07:03:36;12.00;;;5.80;;
71104;SDS011;58760;48.716;8.962;2022-12-08T07:06:02;14.23;;;6.03;;
71104;SDS011;58760;48.716;8.962;2022-12-08T07:08:27;13.95;;;5.65;;
71104;SDS011;58760;48.716;8.962;2022-12-08T07:10:53;15.07;;;5.93;;
71104;SDS011;58760;48.716;8.962;2022-12-08T07:13:18;11.40;;;5.38;;
71104;SDS011;58760;48.716;8.962;2022-12-08T07:15:43;12.90;;;5.47;;
71104;SDS011;58760;48.716;8.962;2022-12-08T07:18:09;10.20;;;5.03;;
71104;SDS011;58760;48.716;8.962;2022-12-08T07:20:34;10.65;;;5.32;;
71104;SDS011;58760;48.716;8.962;2022-12-08T07:22:59;12.45;;;5.75;;
71104;SDS011;58760;48.716;8.962;2022-12-08T07:25:25;10.90;;;5.45;;
71104;SDS011;58760;48.716;8.962;2022-12-08T07:27:50;14.95;;;5.57;;
71104;SDS011;58760;48.716;8.962;2022-12-08T07:30:17;11.73;;;5.95;;
71104;SDS011;58760;48.716;8.962;2022-12-08T07:32:43;14.85;;;6.18;;
71104;SDS011;58760;48.716;8.962;2022-12-08T07:35:09;13.10;;;5.70;;
71104;SDS011;58760;48.716;8.962;2022-12-08T07:37:34;12.18;;;5.75;;
71104;SDS011;58760;48.716;8.962;2022-12-08T07:40:01;12.43;;;5.50;;
71104;SDS011;58760;48.716;8.962;2022-12-08T07:42:27;11.93;;;6.00;;
71104;SDS011;58760;48.716;8.962;2022-12-08T07:44:53;13.15;;;5.78;;
71104;SDS011;58760;48.716;8.962;2022-12-08T07:47:18;11.68;;;5.57;;
71104;SDS011;58760;48.716;8.962;2022-12-08T07:49:44;12.95;;;5.10;;
71104;SDS011;58760;48.716;8.962;2022-12-08T07:52:09;12.00;;;5.47;;
71104;SDS011;58760;48.716;8.962;2022-12-08T07:54:34;12.27;;;6.00;;
71104;SDS011;58760;48.716;8.962;2022-12-08T07:57:00;13.80;;;6.93;;
71104;SDS011;58760;48.716;8.962;2022-12-08T07:59:27;21.15;;;8.98;;
71104;SDS011;58760;48.716;8.962;2022-12-08T08:01:53;24.15;;;10.68;;
71104;SDS011;58760;48.716;8.962;2022-12-08T08:04:18;27.30;;;12.88;;
71104;SDS011;58760;48.716;8.962;2022-12-08T08:06:44;28.10;;;11.57;;
71104;SDS011;58760;48.716;8.962;2022-12-08T08:09:09;25.35;;;10.88;;
71104;SDS011;58760;48.716;8.962;2022-12-08T08:11:35;21.10;;;10.45;;
71104;SDS011;58760;48.716;8.962;2022-12-08T08:14:01;16.88;;;8.32;;
71104;SDS011;58760;48.716;8.962;2022-12-08T08:16:26;19.77;;;8.13;;
71104;SDS011;58760;48.716;8.962;2022-12-08T08:18:52;15.45;;;7.80;;
71104;SDS011;58760;48.716;8.962;2022-12-08T08:21:18;17.63;;;7.93;;
71104;SDS011;58760;48.716;8.962;2022-12-08T08:23:44;15.77;;;7.00;;
71104;SDS011;58760;48.716;8.962;2022-12-08T08:26:09;14.40;;;7.50;;
71104;SDS011;58760;48.716;8.962;2022-12-08T08:28:35;14.73;;;6.82;;
71104;SDS011;58760;48.716;8.962;2022-12-08T08:31:01;15.20;;;7.22;;
71104;SDS011;58760;48.716;8.962;2022-12-08T08:33:26;16.15;;;7.80;;
71104;SDS011;58760;48.716;8.962;2022-12-08T08:35:52;14.68;;;6.88;;
71104;SDS011;58760;48.716;8.962;2022-12-08T08:38:20;14.82;;;7.00;;
71104;SDS011;58760;48.716;8.962;2022-12-08T08:40:46;12.88;;;6.97;;
71104;SDS011;58760;48.716;8.962;2022-12-08T08:43:11;13.38;;;7.22;;
71104;SDS011;58760;48.716;8.962;2022-12-08T08:45:55;14.38;;;6.88;;
71104;SDS011;58760;48.716;8.962;2022-12-08T08:48:21;15.80;;;7.07;;
71104;SDS011;58760;48.716;8.962;2022-12-08T08:50:47;14.15;;;6.63;;
71104;SDS011;58760;48.716;8.962;2022-12-08T08:53:12;15.15;;;7.50;;
71104;SDS011;58760;48.716;8.962;2022-12-08T08:55:38;13.43;;;6.90;;
71104;SDS011;58760;48.716;8.962;2022-12-08T08:58:04;16.20;;;7.13;;
71104;SDS011;58760;48.716;8.962;2022-12-08T09:00:29;13.63;;;7.18;;
71104;SDS011;58760;48.716;8.962;2022-12-08T09:02:55;15.55;;;8.02;;
71104;SDS011;58760;48.716;8.962;2022-12-08T09:05:20;14.15;;;7.10;;
71104;SDS011;58760;48.716;8.962;2022-12-08T09:07:46;15.15;;;7.10;;
71104;SDS011;58760;48.716;8.962;2022-12-08T09:10:11;14.02;;;6.65;;
71104;SDS011;58760;48.716;8.962;2022-12-08T09:12:36;12.90;;;6.70;;
71104;SDS011;58760;48.716;8.962;2022-12-08T09:15:02;14.77;;;7.55;;
71104;SDS011;58760;48.716;8.962;2022-12-08T09:17:28;13.40;;;6.50;;
71104;SDS011;58760;48.716;8.962;2022-12-08T09:19:53;14.68;;;6.95;;
71104;SDS011;58760;48.716;8.962;2022-12-08T09:22:18;13.65;;;6.60;;
71104;SDS011;58760;48.716;8.962;2022-12-08T09:24:44;13.55;;;6.60;;
71104;SDS011;58760;48.716;8.962;2022-12-08T09:27:09;12.57;;;6.55;;
71104;SDS011;58760;48.716;8.962;2022-12-08T09:29:34;13.20;;;6.57;;
71104;SDS011;58760;48.716;8.962;2022-12-08T09:32:00;14.07;;;7.25;;
71104;SDS011;58760;48.716;8.962;2022-12-08T09:34:25;15.32;;;7.30;;
71104;SDS011;58760;48.716;8.962;2022-12-08T09:36:51;14.98;;;7.05;;
71104;SDS011;58760;48.716;8.962;2022-12-08T09:39:16;12.90;;;6.63;;
71104;SDS011;58760;48.716;8.962;2022-12-08T09:41:45;15.52;;;7.43;;
71104;SDS011;58760;48.716;8.962;2022-12-08T09:47:15;12.45;;;6.40;;
71104;SDS011;58760;48.716;8.962;2022-12-08T09:49:47;12.27;;;5.85;;
71104;SDS011;58760;48.716;8.962;2022-12-08T09:52:24;12.93;;;6.20;;
71104;SDS011;58760;48.716;8.962;2022-12-08T09:55:16;12.85;;;6.05;;
71104;SDS011;58760;48.716;8.962;2022-12-08T09:57:49;11.73;;;5.57;;
71104;SDS011;58760;48.716;8.962;2022-12-08T10:00:22;12.48;;;6.78;;
71104;SDS011;58760;48.716;8.962;2022-12-08T10:02:47;11.60;;;6.28;;
71104;SDS011;58760;48.716;8.962;2022-12-08T10:05:13;13.80;;;6.63;;
71104;SDS011;58760;48.716;8.962;2022-12-08T10:07:53;13.10;;;5.88;;
71104;SDS011;58760;48.716;8.962;2022-12-08T10:10:48;13.55;;;5.85;;
71104;SDS011;58760;48.716;8.962;2022-12-08T10:16:06;12.50;;;6.47;;
71104;SDS011;58760;48.716;8.962;2022-12-08T10:18:38;12.90;;;6.32;;
71104;SDS011;58760;48.716;8.962;2022-12-08T10:21:15;12.60;;;6.28;;
71104;SDS011;58760;48.716;8.962;2022-12-08T10:23:45;12.43;;;5.72;;
71104;SDS011;58760;48.716;8.962;2022-12-08T10:26:15;11.60;;;5.75;;
71104;SDS011;58760;48.716;8.962;2022-12-08T10:28:43;10.70;;;5.95;;
71104;SDS011;58760;48.716;8.962;2022-12-08T10:31:13;11.00;;;5.43;;
71104;SDS011;58760;48.716;8.962;2022-12-08T10:33:43;13.77;;;5.85;;
71104;SDS011;58760;48.716;8.962;2022-12-08T10:36:11;13.48;;;6.00;;
71104;SDS011;58760;48.716;8.962;2022-12-08T10:38:37;11.18;;;4.97;;
71104;SDS011;58760;48.716;8.962;2022-12-08T10:41:05;10.57;;;5.30;;
71104;SDS011;58760;48.716;8.962;2022-12-08T10:43:38;12.73;;;4.97;;
71104;SDS011;58760;48.716;8.962;2022-12-08T10:46:11;10.98;;;4.95;;
71104;SDS011;58760;48.716;8.962;2022-12-08T10:48:54;11.02;;;5.40;;
71104;SDS011;58760;48.716;8.962;2022-12-08T10:53:57;10.43;;;5.35;;
71104;SDS011;58760;48.716;8.962;2022-12-08T10:56:24;10.20;;;5.07;;
71104;SDS011;58760;48.716;8.962;2022-12-08T10:59:03;9.02;;;4.82;;
71104;SDS011;58760;48.716;8.962;2022-12-08T11:01:35;8.30;;;4.40;;
71104;SDS011;58760;48.716;8.962;2022-12-08T11:04:04;9.45;;;4.32;;
71104;SDS011;58760;48.716;8.962;2022-12-08T11:06:36;9.32;;;4.07;;
71104;SDS011;58760;48.716;8.962;2022-12-08T11:09:04;8.10;;;4.10;;
71104;SDS011;58760;48.716;8.962;2022-12-08T11:11:50;11.90;;;4.50;;
71104;SDS011;58760;48.716;8.962;2022-12-08T11:14:18;9.77;;;4.25;;
71104;SDS011;58760;48.716;8.962;2022-12-08T11:17:04;9.75;;;4.72;;
71104;SDS011;58760;48.716;8.962;2022-12-08T11:19:36;8.48;;;4.13;;
71104;SDS011;58760;48.716;8.962;2022-12-08T11:22:19;8.82;;;3.97;;
71104;SDS011;58760;48.716;8.962;2022-12-08T11:27:24;10.93;;;3.83;;
71104;SDS011;58760;48.716;8.962;2022-12-08T11:29:50;8.65;;;4.05;;
71104;SDS011;58760;48.716;8.962;2022-12-08T11:32:16;8.98;;;4.40;;
71104;SDS011;58760;48.716;8.962;2022-12-08T11:34:43;9.77;;;4.18;;
71104;SDS011;58760;48.716;8.962;2022-12-08T11:37:17;9.73;;;4.63;;
71104;SDS011;58760;48.716;8.962;2022-12-08T11:39:48;10.07;;;4.25;;
71104;SDS011;58760;48.716;8.962;2022-12-08T11:42:17;7.65;;;3.72;;
71104;SDS011;58760;48.716;8.962;2022-12-08T11:44:50;7.35;;;3.67;;
71104;SDS011;58760;48.716;8.962;2022-12-08T11:47:23;8.98;;;4.32;;
71104;SDS011;58760;48.716;8.962;2022-12-08T11:49:53;9.30;;;4.38;;
71104;SDS011;58760;48.716;8.962;2022-12-08T11:52:45;10.30;;;5.07;;
71104;SDS011;58760;48.716;8.962;2022-12-08T11:57:56;7.68;;;3.95;;
71104;SDS011;58760;48.716;8.962;2022-12-08T12:00:26;9.45;;;4.70;;
71104;SDS011;58760;48.716;8.962;2022-12-08T12:03:00;8.85;;;4.70;;
71104;SDS011;58760;48.716;8.962;2022-12-08T12:05:39;11.43;;;4.72;;
71104;SDS011;58760;48.716;8.962;2022-12-08T12:16:56;9.73;;;5.13;;
71104;SDS011;58760;48.716;8.962;2022-12-08T12:19:26;8.50;;;4.50;;
71104;SDS011;58760;48.716;8.962;2022-12-08T12:21:54;10.18;;;4.90;;
71104;SDS011;58760;48.716;8.962;2022-12-08T12:24:22;10.07;;;5.00;;
71104;SDS011;58760;48.716;8.962;2022-12-08T12:26:58;11.52;;;5.78;;
71104;SDS011;58760;48.716;8.962;2022-12-08T12:29:30;12.15;;;5.75;;
71104;SDS011;58760;48.716;8.962;2022-12-08T12:32:03;10.88;;;5.32;;
71104;SDS011;58760;48.716;8.962;2022-12-08T12:34:35;9.18;;;4.60;;
71104;SDS011;58760;48.716;8.962;2022-12-08T12:37:14;9.02;;;4.75;;
71104;SDS011;58760;48.716;8.962;2022-12-08T12:47:44;10.10;;;4.93;;
71104;SDS011;58760;48.716;8.962;2022-12-08T12:50:58;9.40;;;4.30;;
71104;SDS011;58760;48.716;8.962;2022-12-08T12:56:02;11.57;;;4.88;;
71104;SDS011;58760;48.716;8.962;2022-12-08T13:03:43;8.43;;;4.25;;
71104;SDS011;58760;48.716;8.962;2022-12-08T13:06:31;11.88;;;4.78;;
71104;SDS011;58760;48.716;8.962;2022-12-08T13:09:00;8.65;;;4.03;;
71104;SDS011;58760;48.716;8.962;2022-12-08T13:11:26;9.40;;;4.63;;
71104;SDS011;58760;48.716;8.962;2022-12-08T13:13:55;8.15;;;3.67;;
71104;SDS011;58760;48.716;8.962;2022-12-08T13:16:25;9.98;;;4.18;;
71104;SDS011;58760;48.716;8.962;2022-12-08T13:18:56;10.25;;;4.60;;
71104;SDS011;58760;48.716;8.962;2022-12-08T13:21:31;8.52;;;4.63;;
71104;SDS011;58760;48.716;8.962;2022-12-08T13:24:25;9.30;;;4.63;;
71104;SDS011;58760;48.716;8.962;2022-12-08T13:29:28;8.52;;;4.18;;
71104;SDS011;58760;48.716;8.962;2022-12-08T13:39:50;10.02;;;4.70;;
71104;SDS011;58760;48.716;8.962;2022-12-08T13:47:57;8.30;;;4.03;;
71104;SDS011;58760;48.716;8.962;2022-12-08T13:53:19;9.23;;;4.60;;
71104;SDS011;58760;48.716;8.962;2022-12-08T13:55:48;11.85;;;5.25;;
71104;SDS011;58760;48.716;8.962;2022-12-08T13:58:18;12.18;;;4.88;;
71104;SDS011;58760;48.716;8.962;2022-12-08T14:01:30;10.52;;;5.30;;
71104;SDS011;58760;48.716;8.962;2022-12-08T14:03:43;10.75;;;5.18;;
71104;SDS011;58760;48.716;8.962;2022-12-08T14:06:16;10.30;;;4.85;;
71104;SDS011;58760;48.716;8.962;2022-12-08T14:08:45;11.15;;;4.78;;
71104;SDS011;58760;48.716;8.962;2022-12-08T14:11:20;11.05;;;5.20;;
71104;SDS011;58760;48.716;8.962;2022-12-08T14:14:11;10.82;;;4.93;;
71104;SDS011;58760;48.716;8.962;2022-12-08T14:16:41;13.27;;;4.70;;
71104;SDS011;58760;48.716;8.962;2022-12-08T14:19:20;16.50;;;5.32;;
71104;SDS011;58760;48.716;8.962;2022-12-08T14:21:53;9.90;;;4.60;;
71104;SDS011;58760;48.716;8.962;2022-12-08T14:24:30;9.48;;;4.40;;
71104;SDS011;58760;48.716;8.962;2022-12-08T14:26:58;10.43;;;4.13;;
71104;SDS011;58760;48.716;8.962;2022-12-08T14:32:30;8.88;;;3.90;;
71104;SDS011;58760;48.716;8.962;2022-12-08T14:37:43;8.85;;;3.78;;
71104;SDS011;58760;48.716;8.962;2022-12-08T14:42:43;8.32;;;3.63;;
71104;SDS011;58760;48.716;8.962;2022-12-08T14:45:11;9.93;;;4.05;;
71104;SDS011;58760;48.716;8.962;2022-12-08T14:47:39;8.70;;;4.25;;
71104;SDS011;58760;48.716;8.962;2022-12-08T14:50:35;10.73;;;4.05;;
71104;SDS011;58760;48.716;8.962;2022-12-08T14:52:59;8.10;;;3.88;;
71104;SDS011;58760;48.716;8.962;2022-12-08T14:55:25;10.25;;;3.92;;
71104;SDS011;58760;48.716;8.962;2022-12-08T14:57:52;9.23;;;3.50;;
71104;SDS011;58760;48.716;8.962;2022-12-08T15:00:18;13.38;;;3.60;;
71104;SDS011;58760;48.716;8.962;2022-12-08T15:02:44;7.10;;;3.60;;
71104;SDS011;58760;48.716;8.962;2022-12-08T15:05:14;10.20;;;3.40;;
71104;SDS011;58760;48.716;8.962;2022-12-08T15:07:52;8.38;;;3.53;;
71104;SDS011;58760;48.716;8.962;2022-12-08T15:10:24;6.45;;;2.83;;
71104;SDS011;58760;48.716;8.962;2022-12-08T15:13:05;8.18;;;4.00;;
71104;SDS011;58760;48.716;8.962;2022-12-08T15:15:33;8.20;;;3.10;;
71104;SDS011;58760;48.716;8.962;2022-12-08T15:18:21;8.23;;;3.30;;
71104;SDS011;58760;48.716;8.962;2022-12-08T15:20:59;7.78;;;3.58;;
71104;SDS011;58760;48.716;8.962;2022-12-08T15:23:28;6.78;;;3.10;;
71104;SDS011;58760;48.716;8.962;2022-12-08T15:25:56;7.43;;;3.35;;
71104;SDS011;58760;48.716;8.962;2022-12-08T15:28:23;7.65;;;3.42;;
71104;SDS011;58760;48.716;8.962;2022-12-08T15:30:51;8.93;;;3.50;;
71104;SDS011;58760;48.716;8.962;2022-12-08T15:33:17;6.93;;;3.17;;
71104;SDS011;58760;48.716;8.962;2022-12-08T15:35:43;7.18;;;3.45;;
71104;SDS011;58760;48.716;8.962;2022-12-08T15:38:27;7.93;;;4.00;;
71104;SDS011;58760;48.716;8.962;2022-12-08T15:40:53;9.40;;;3.75;;
71104;SDS011;58760;48.716;8.962;2022-12-08T15:43:20;7.63;;;3.47;;
71104;SDS011;58760;48.716;8.962;2022-12-08T15:45:46;9.52;;;4.05;;
71104;SDS011;58760;48.716;8.962;2022-12-08T15:48:14;10.43;;;3.47;;
71104;SDS011;58760;48.716;8.962;2022-12-08T15:50:45;8.05;;;3.67;;
71104;SDS011;58760;48.716;8.962;2022-12-08T15:53:11;6.82;;;3.15;;
71104;SDS011;58760;48.716;8.962;2022-12-08T15:55:37;9.02;;;3.65;;
71104;SDS011;58760;48.716;8.962;2022-12-08T15:58:03;8.02;;;3.45;;
71104;SDS011;58760;48.716;8.962;2022-12-08T16:00:30;7.20;;;3.25;;
71104;SDS011;58760;48.716;8.962;2022-12-08T16:02:58;8.40;;;3.60;;
71104;SDS011;58760;48.716;8.962;2022-12-08T16:05:24;8.05;;;3.35;;
71104;SDS011;58760;48.716;8.962;2022-12-08T16:07:51;7.85;;;3.45;;
71104;SDS011;58760;48.716;8.962;2022-12-08T16:10:22;8.38;;;3.25;;
71104;SDS011;58760;48.716;8.962;2022-12-08T16:12:48;7.63;;;3.45;;
71104;SDS011;58760;48.716;8.962;2022-12-08T16:15:34;7.35;;;3.05;;
71104;SDS011;58760;48.716;8.962;2022-12-08T16:18:20;6.90;;;3.05;;
71104;SDS011;58760;48.716;8.962;2022-12-08T16:20:50;8.93;;;3.53;;
71104;SDS011;58760;48.716;8.962;2022-12-08T16:23:15;6.82;;;3.30;;
71104;SDS011;58760;48.716;8.962;2022-12-08T16:25:41;7.65;;;3.72;;